Time;durP1;ratioP1;P1;durP2;ratioP2;P2;SDS_P1;SDS_P2;PMS_P1;PMS_P2;Temp;Humidity;BMP_temperature;BMP_pressure;BME280_temperature;BME280_humidity;BME280_pressure;Samples;Min_cycle;Max_cycle;Signal;HPM_P1;HPM_P2
2022/01/30 00:00:34;;;;;;;3.73;2.27;;;3.50;99.90;;;;;;4484259;27;656553;-71
2022/01/30 00:03:23;;;;;;;6.30;2.73;;;3.50;99.90;;;;;;4465481;27;655518;-72
2022/01/30 00:06:11;;;;;;;7.67;3.63;;;3.50;99.90;;;;;;4478338;27;655421;-73
2022/01/30 00:08:58;;;;;;;4.97;3.47;;;3.40;99.90;;;;;;4483956;27;656559;-72
2022/01/30 00:11:51;;;;;;;5.67;3.83;;;3.40;99.90;;;;;;4464938;28;655525;-72
2022/01/30 00:14:38;;;;;;;5.27;2.80;;;3.40;99.90;;;;;;4460900;28;656407;-72
2022/01/30 00:17:34;;;;;;;4.20;2.43;;;3.30;99.90;;;;;;4465979;28;655232;-72
2022/01/30 00:20:26;;;;;;;4.67;2.70;;;3.40;99.90;;;;;;4465747;28;655437;-74
2022/01/30 00:23:19;;;;;;;5.23;2.37;;;3.40;99.90;;;;;;4461827;28;656375;-73
2022/01/30 00:26:08;;;;;;;4.07;2.70;;;3.50;99.90;;;;;;4441012;28;657014;-74
2022/01/30 00:28:56;;;;;;;3.75;1.52;;;3.50;99.90;;;;;;4464830;28;655317;-74
2022/01/30 00:31:44;;;;;;;4.03;1.83;;;3.50;99.90;;;;;;4488316;28;656251;-74
2022/01/30 00:34:31;;;;;;;4.47;2.57;;;3.60;99.90;;;;;;4464897;28;655631;-74
2022/01/30 00:37:20;;;;;;;4.33;2.57;;;3.50;99.90;;;;;;4484344;28;656910;-72
2022/01/30 00:40:09;;;;;;;5.97;3.70;;;3.60;99.90;;;;;;4461330;28;656863;-71
2022/01/30 00:42:56;;;;;;;5.17;2.87;;;3.60;99.90;;;;;;4465385;28;655554;-72
2022/01/30 00:45:44;;;;;;;6.63;3.10;;;3.60;99.90;;;;;;4484307;28;655566;-72
2022/01/30 00:48:32;;;;;;;3.90;1.87;;;3.60;99.90;;;;;;4465268;28;655305;-73
2022/01/30 00:51:19;;;;;;;4.63;2.50;;;3.60;99.90;;;;;;4484723;28;656001;-72
2022/01/30 00:54:08;;;;;;;5.07;3.13;;;3.70;99.90;;;;;;4466007;28;655440;-70
2022/01/30 00:56:59;;;;;;;7.00;3.47;;;3.60;99.90;;;;;;4465778;28;655941;-74
2022/01/30 00:59:48;;;;;;;3.60;2.30;;;3.60;99.90;;;;;;4464904;28;655240;-74
2022/01/30 01:02:36;;;;;;;6.50;2.67;;;3.60;99.90;;;;;;4464700;28;655403;-72
2022/01/30 01:05:24;;;;;;;4.87;3.00;;;3.60;99.90;;;;;;4487271;28;656271;-73
2022/01/30 01:08:16;;;;;;;5.63;3.47;;;3.60;99.90;;;;;;4465879;28;655269;-73
2022/01/30 01:11:27;;;;;;;7.47;3.10;;;3.60;99.90;;;;;;4461004;28;655951;-72
2022/01/30 01:23:35;;;;;;;4.97;2.63;;;3.70;99.90;;;;;;4424086;28;655510;-73
2022/01/30 01:26:25;;;;;;;5.87;2.40;;;3.60;99.90;;;;;;4446358;28;657003;-72
2022/01/30 01:29:12;;;;;;;4.63;2.27;;;3.60;99.90;;;;;;4450770;28;655468;-72
2022/01/30 01:32:00;;;;;;;4.27;2.67;;;3.70;99.90;;;;;;4469255;28;656052;-73
2022/01/30 01:34:48;;;;;;;5.03;3.13;;;3.70;99.90;;;;;;4445931;28;656420;-73
2022/01/30 01:37:35;;;;;;;4.53;3.23;;;3.60;99.90;;;;;;4469407;28;655763;-72
2022/01/30 01:40:23;;;;;;;4.93;3.00;;;3.60;99.90;;;;;;4446360;28;656894;-72
2022/01/30 01:43:12;;;;;;;6.50;3.37;;;3.60;99.90;;;;;;4459663;28;655623;-73
2022/01/30 01:46:01;;;;;;;6.53;3.47;;;3.50;99.90;;;;;;4469253;28;655073;-73
2022/01/30 01:48:51;;;;;;;7.83;4.00;;;3.60;99.90;;;;;;4449874;28;656421;-72
2022/01/30 01:52:00;;;;;;;4.60;2.53;;;3.60;99.90;;;;;;4446312;28;656137;-72
2022/01/30 01:54:57;;;;;;;6.07;3.33;;;3.60;99.90;;;;;;4446434;28;655874;-72
2022/01/30 01:57:49;;;;;;;6.13;3.27;;;3.50;99.90;;;;;;4446576;28;655457;-73
2022/01/30 02:00:47;;;;;;;6.97;2.80;;;3.50;99.90;;;;;;4449746;28;655654;-73
2022/01/30 02:03:38;;;;;;;4.23;2.67;;;3.50;99.90;;;;;;4445719;28;655877;-72
2022/01/30 02:06:29;;;;;;;5.78;2.72;;;3.60;99.90;;;;;;4442446;28;655624;-73
2022/01/30 02:09:17;;;;;;;5.80;2.90;;;3.50;99.90;;;;;;4448726;28;656386;-72
2022/01/30 02:12:20;;;;;;;9.87;2.80;;;3.50;99.90;;;;;;4468740;28;655556;-72
2022/01/30 02:15:43;;;;;;;4.57;2.07;;;3.50;99.90;;;;;;4444779;28;656219;-73
2022/01/30 02:24:48;;;;;;;7.23;2.20;;;3.50;99.90;;;;;;4445165;28;656058;-73
2022/01/30 02:27:38;;;;;;;9.40;2.77;;;3.50;99.90;;;;;;4426310;28;655615;-72
2022/01/30 02:30:30;;;;;;;4.67;1.87;;;3.50;99.90;;;;;;4468839;28;655153;-73
2022/01/30 02:33:18;;;;;;;6.97;1.90;;;3.40;99.90;;;;;;4449204;28;655449;-72
2022/01/30 02:36:06;;;;;;;6.33;1.73;;;3.40;99.90;;;;;;4460004;28;656027;-73
2022/01/30 02:38:57;;;;;;;7.20;1.80;;;3.50;58.00;;;;;;4468980;28;656069;-72
2022/01/30 02:41:46;;;;;;;7.20;1.87;;;3.50;1.00;;;;;;4445074;28;656674;-72
2022/01/30 02:44:39;;;;;;;6.00;1.47;;;3.60;1.00;;;;;;4456508;27;654704;-73
2022/01/30 02:47:40;;;;;;;4.93;1.17;;;3.60;1.00;;;;;;4466769;27;655103;-73
2022/01/30 02:50:37;;;;;;;5.97;1.37;;;3.60;1.00;;;;;;4445246;27;655321;-71
2022/01/30 02:53:31;;;;;;;7.35;1.67;;;3.80;1.00;;;;;;4464437;27;654469;-72
2022/01/30 02:56:18;;;;;;;2.97;0.83;;;3.70;1.00;;;;;;4464283;27;654885;-71
2022/01/30 02:59:08;;;;;;;10.43;1.57;;;3.80;1.00;;;;;;4468555;27;654747;-72
2022/01/30 03:01:55;;;;;;;15.23;1.47;;;3.80;1.00;;;;;;4485861;27;655495;-72
2022/01/30 03:04:43;;;;;;;8.60;1.57;;;3.70;1.00;;;;;;4462450;27;656732;-73
2022/01/30 03:07:30;;;;;;;7.70;1.50;;;3.70;99.90;;;;;;4486482;27;654621;-72
2022/01/30 03:10:18;;;;;;;10.87;1.90;;;3.80;99.90;;;;;;4466814;27;656439;-72
2022/01/30 03:13:06;;;;;;;10.73;1.90;;;3.80;35.10;;;;;;4480039;27;656465;-72
2022/01/30 03:15:55;;;;;;;8.60;1.80;;;3.70;1.00;;;;;;4483947;27;657936;-72
2022/01/30 03:18:44;;;;;;;9.17;1.50;;;3.70;1.00;;;;;;4463560;27;655615;-73
2022/01/30 03:21:31;;;;;;;7.80;1.30;;;3.60;1.00;;;;;;4467067;27;655062;-74
2022/01/30 03:24:20;;;;;;;4.93;1.00;;;3.70;99.90;;;;;;4486800;27;654822;-74
2022/01/30 03:27:09;;;;;;;9.07;1.80;;;3.80;99.90;;;;;;4466347;27;656306;-72
2022/01/30 03:30:04;;;;;;;8.77;1.70;;;3.90;99.90;;;;;;4463558;27;655534;-72
2022/01/30 03:32:53;;;;;;;5.33;1.00;;;3.90;93.50;;;;;;4466003;27;655266;-74
2022/01/30 03:35:43;;;;;;;6.33;1.10;;;3.90;21.10;;;;;;4474705;27;655322;-72
2022/01/30 03:38:31;;;;;;;9.57;1.50;;;4.00;1.00;;;;;;4465467;27;655548;-73
2022/01/30 03:41:19;;;;;;;12.90;1.63;;;4.10;1.00;;;;;;4488689;27;654956;-71
2022/01/30 03:44:07;;;;;;;10.40;1.70;;;4.10;1.00;;;;;;4465361;27;655633;-72
2022/01/30 03:46:54;;;;;;;6.90;1.47;;;4.00;1.00;;;;;;4483310;27;655186;-72
2022/01/30 03:49:43;;;;;;;4.63;1.03;;;4.00;1.00;;;;;;4466059;27;654934;-72
2022/01/30 03:52:31;;;;;;;4.13;0.93;;;4.10;1.00;;;;;;4467505;27;654530;-72
2022/01/30 03:55:18;;;;;;;7.57;1.13;;;4.30;1.00;;;;;;4485213;27;654849;-72
2022/01/30 03:58:07;;;;;;;9.87;1.23;;;4.30;1.00;;;;;;4467141;27;654392;-72
2022/01/30 04:00:55;;;;;;;5.97;1.30;;;4.40;1.00;;;;;;4485184;27;654413;-72
2022/01/30 04:03:42;;;;;;;7.67;1.40;;;4.30;1.00;;;;;;4466577;27;654513;-71
2022/01/30 04:06:32;;;;;;;16.40;2.30;;;4.30;1.00;;;;;;4484858;27;654819;-72
2022/01/30 04:09:19;;;;;;;4.73;1.30;;;4.30;1.00;;;;;;4460646;27;656097;-71
2022/01/30 04:12:08;;;;;;;4.77;1.20;;;4.40;1.00;;;;;;4462568;27;654904;-72
2022/01/30 04:14:56;;;;;;;12.60;1.60;;;4.40;1.00;;;;;;4465741;27;655320;-73
2022/01/30 04:17:47;;;;;;;7.50;1.40;;;4.30;1.00;;;;;;4484016;28;655603;-71
2022/01/30 04:20:35;;;;;;;6.93;1.73;;;4.20;1.00;;;;;;4465540;28;655016;-71
2022/01/30 04:23:24;;;;;;;9.53;1.23;;;3.90;1.00;;;;;;4461943;28;655916;-73
2022/01/30 04:26:11;;;;;;;3.50;1.20;;;3.60;99.90;;;;;;4466430;28;654989;-72
2022/01/30 04:28:59;;;;;;;11.27;1.43;;;3.30;99.90;;;;;;4483720;28;656742;-71
2022/01/30 04:31:49;;;;;;;6.90;1.63;;;2.80;99.90;;;;;;4463101;28;656170;-72
2022/01/30 04:34:37;;;;;;;11.13;1.40;;;2.60;1.00;;;;;;4464370;28;655772;-72
2022/01/30 04:37:26;;;;;;;7.93;1.40;;;2.30;21.20;;;;;;4484067;28;656972;-72
2022/01/30 04:40:38;;;;;;;4.07;1.00;;;2.10;1.00;;;;;;4460582;28;656568;-74
2022/01/30 04:53:03;;;;;;;8.23;1.20;;;2.20;1.00;;;;;;4439199;27;656885;-73
2022/01/30 04:59:10;;;;;;;11.57;1.57;;;2.40;1.00;;;;;;4468603;27;655687;-73
2022/01/30 05:02:04;;;;;;;7.23;1.40;;;2.50;1.00;;;;;;4444684;27;655490;-72
2022/01/30 05:05:05;;;;;;;14.70;1.67;;;2.80;99.90;;;;;;4469578;27;654958;-71
2022/01/30 05:07:53;;;;;;;11.83;1.40;;;3.00;1.00;;;;;;4440630;27;657070;-71
2022/01/30 05:10:41;;;;;;;10.23;1.45;;;3.00;1.00;;;;;;4468330;27;655431;-72
2022/01/30 05:13:33;;;;;;;4.77;1.30;;;3.10;1.00;;;;;;4490386;27;656167;-72
2022/01/30 05:16:23;;;;;;;5.15;0.98;;;3.00;99.90;;;;;;4469814;27;654411;-74
2022/01/30 05:19:12;;;;;;;7.20;1.03;;;3.00;1.00;;;;;;4483678;27;655492;-74
2022/01/30 05:22:01;;;;;;;10.23;1.20;;;2.90;1.00;;;;;;4488296;27;654486;-73
2022/01/30 05:24:49;;;;;;;5.33;1.13;;;2.80;29.30;;;;;;4467344;27;655673;-73
2022/01/30 05:27:37;;;;;;;4.50;1.10;;;2.80;99.90;;;;;;4467316;27;655603;-74
2022/01/30 05:30:26;;;;;;;11.90;1.50;;;2.80;99.90;;;;;;4487165;27;656059;-71
2022/01/30 05:33:14;;;;;;;7.30;1.50;;;2.70;1.00;;;;;;4462264;27;657877;-69
2022/01/30 05:36:03;;;;;;;6.93;1.27;;;2.70;1.00;;;;;;4468431;27;654810;-73
2022/01/30 05:38:51;;;;;;;10.33;1.90;;;2.80;99.90;;;;;;4487058;27;654669;-72
2022/01/30 05:41:39;;;;;;;7.17;1.40;;;2.90;1.00;;;;;;4461985;27;657111;-74
2022/01/30 05:44:40;;;;;;;13.07;2.17;;;2.90;99.90;;;;;;4468420;27;654276;-72
2022/01/30 05:47:34;;;;;;;12.17;1.83;;;3.00;99.90;;;;;;4438417;27;657340;-72
2022/01/30 05:50:23;;;;;;;10.97;1.73;;;3.10;99.90;;;;;;4438426;27;656912;-70
2022/01/30 05:53:11;;;;;;;5.40;1.13;;;3.20;1.00;;;;;;4484834;27;656191;-72
2022/01/30 05:55:58;;;;;;;11.80;2.10;;;3.30;1.00;;;;;;4487452;27;654560;-72
2022/01/30 05:58:46;;;;;;;7.88;1.23;;;3.40;1.00;;;;;;4466188;27;656291;-73
2022/01/30 06:01:33;;;;;;;8.67;1.80;;;3.50;1.00;;;;;;4490563;27;655085;-72
2022/01/30 06:04:22;;;;;;;9.53;1.83;;;3.50;1.00;;;;;;4467968;27;654787;-71
2022/01/30 06:07:11;;;;;;;10.68;1.80;;;3.60;1.00;;;;;;4486808;27;653930;-71
2022/01/30 06:09:58;;;;;;;5.07;1.03;;;3.70;1.00;;;;;;4463030;27;655936;-71
2022/01/30 06:12:46;;;;;;;3.47;0.87;;;3.80;1.00;;;;;;4468130;27;654400;-74
2022/01/30 06:15:34;;;;;;;9.97;1.47;;;3.80;1.00;;;;;;4489669;27;655226;-72
2022/01/30 06:18:21;;;;;;;8.87;1.67;;;3.90;1.00;;;;;;4467007;27;654314;-72
2022/01/30 06:21:10;;;;;;;5.90;1.23;;;4.00;1.00;;;;;;4486419;27;655728;-72
2022/01/30 06:23:58;;;;;;;7.53;1.23;;;3.90;1.00;;;;;;4463820;27;654886;-73
2022/01/30 06:26:46;;;;;;;7.22;1.40;;;3.90;1.00;;;;;;4467747;27;655025;-70
2022/01/30 06:29:33;;;;;;;8.40;2.03;;;4.00;1.00;;;;;;4486637;27;654591;-72
2022/01/30 06:32:21;;;;;;;8.00;1.40;;;4.00;1.00;;;;;;4467535;27;654551;-72
2022/01/30 06:35:09;;;;;;;5.63;1.33;;;4.00;1.00;;;;;;4486505;27;655100;-71
2022/01/30 06:37:58;;;;;;;10.70;1.60;;;4.00;1.00;;;;;;4467535;27;654980;-71
2022/01/30 06:40:46;;;;;;;7.78;1.20;;;3.90;1.00;;;;;;4470658;27;655459;-73
2022/01/30 06:43:33;;;;;;;10.17;1.47;;;3.90;1.00;;;;;;4486542;27;655122;-71
2022/01/30 06:46:21;;;;;;;7.27;1.33;;;4.00;1.00;;;;;;4466276;27;655290;-72
2022/01/30 06:49:09;;;;;;;7.67;1.43;;;4.00;1.00;;;;;;4490460;27;655000;-71
2022/01/30 06:51:56;;;;;;;7.53;1.53;;;4.00;1.00;;;;;;4467057;27;654422;-72
2022/01/30 06:54:45;;;;;;;3.60;1.27;;;4.00;1.00;;;;;;4486069;27;655410;-72
2022/01/30 06:57:33;;;;;;;4.70;1.47;;;4.00;1.00;;;;;;4467604;27;654989;-74
2022/01/30 07:00:21;;;;;;;7.80;1.30;;;4.00;1.00;;;;;;4476932;27;654333;-72
2022/01/30 07:03:08;;;;;;;8.13;1.20;;;3.90;1.00;;;;;;4489972;27;655317;-71
2022/01/30 07:05:56;;;;;;;7.50;1.35;;;4.00;1.00;;;;;;4468033;27;654839;-72
2022/01/30 07:08:43;;;;;;;4.80;1.17;;;4.00;1.00;;;;;;4490970;27;655577;-71
2022/01/30 07:11:33;;;;;;;8.10;1.33;;;4.00;1.00;;;;;;4467287;27;654507;-73
2022/01/30 07:14:21;;;;;;;5.00;1.10;;;4.10;1.00;;;;;;4481231;27;654878;-72
2022/01/30 07:17:08;;;;;;;3.77;1.37;;;4.10;1.00;;;;;;4502719;27;655255;-72
2022/01/30 07:19:56;;;;;;;6.15;1.65;;;4.00;1.00;;;;;;4484982;27;654443;-72
2022/01/30 07:22:43;;;;;;;4.37;0.87;;;4.00;1.00;;;;;;4507672;27;654936;-71
2022/01/30 07:25:31;;;;;;;3.07;1.10;;;4.00;1.00;;;;;;4484389;27;654637;-71
2022/01/30 07:28:20;;;;;;;6.30;1.53;;;4.00;1.00;;;;;;4506964;27;655156;-71
2022/01/30 07:31:08;;;;;;;9.30;1.00;;;4.00;1.00;;;;;;4480772;27;654860;-71
2022/01/30 07:33:56;;;;;;;10.27;1.23;;;3.90;1.00;;;;;;4494660;27;654252;-71
2022/01/30 07:36:43;;;;;;;8.83;1.60;;;3.90;1.00;;;;;;4502712;27;656221;-72
2022/01/30 07:39:32;;;;;;;7.00;1.17;;;3.90;1.00;;;;;;4484624;27;654426;-72
2022/01/30 07:42:20;;;;;;;8.00;1.40;;;3.90;1.00;;;;;;4503969;27;654703;-71
2022/01/30 07:45:10;;;;;;;8.97;1.80;;;3.90;1.00;;;;;;4480042;27;655637;-72
2022/01/30 07:47:58;;;;;;;6.67;1.77;;;3.90;1.00;;;;;;4480307;27;655721;-71
2022/01/30 07:50:46;;;;;;;3.60;1.10;;;3.90;1.00;;;;;;4493720;27;654516;-73
2022/01/30 07:53:34;;;;;;;11.77;2.00;;;3.90;1.00;;;;;;4503609;27;655326;-75
2022/01/30 07:56:23;;;;;;;5.53;1.33;;;3.90;1.00;;;;;;4479619;27;655915;-71
2022/01/30 07:59:11;;;;;;;7.40;1.40;;;3.90;1.00;;;;;;4486650;27;654511;-72
2022/01/30 08:02:00;;;;;;;3.23;1.03;;;3.90;1.00;;;;;;4503575;27;655236;-73
2022/01/30 08:04:47;;;;;;;7.23;1.60;;;4.00;1.00;;;;;;4484212;27;655532;-71
2022/01/30 08:07:35;;;;;;;9.37;1.73;;;4.00;1.00;;;;;;4503428;27;654492;-71
2022/01/30 08:10:22;;;;;;;18.30;2.00;;;4.00;1.00;;;;;;4484566;27;654734;-73
2022/01/30 08:13:17;;;;;;;13.97;1.73;;;4.10;1.00;;;;;;4503142;27;655658;-72
2022/01/30 08:16:11;;;;;;;8.37;1.73;;;3.90;1.00;;;;;;4479128;27;655743;-71
2022/01/30 08:19:06;;;;;;;9.97;1.70;;;3.70;1.00;;;;;;4480251;27;655311;-71
2022/01/30 08:21:56;;;;;;;11.83;1.47;;;3.70;1.00;;;;;;4457211;27;655240;-71
2022/01/30 08:24:43;;;;;;;9.63;1.80;;;3.50;1.00;;;;;;4477821;27;655949;-71
2022/01/30 08:27:31;;;;;;;5.53;1.63;;;3.50;1.00;;;;;;4488215;27;654950;-73
2022/01/30 08:30:18;;;;;;;6.93;1.70;;;3.50;1.00;;;;;;4506608;27;654518;-72
2022/01/30 08:33:06;;;;;;;7.55;2.15;;;3.40;1.00;;;;;;4487447;27;654801;-72
2022/01/30 08:35:55;;;;;;;4.17;1.30;;;3.50;1.00;;;;;;4511150;27;654676;-70
2022/01/30 08:38:42;;;;;;;8.97;1.63;;;3.50;1.00;;;;;;4483297;27;655347;-72
2022/01/30 08:41:30;;;;;;;5.13;1.53;;;3.50;1.00;;;;;;4506914;27;654508;-71
2022/01/30 08:44:18;;;;;;;4.73;1.50;;;3.40;1.00;;;;;;4483375;27;654990;-72
2022/01/30 08:47:06;;;;;;;11.07;2.27;;;3.40;1.00;;;;;;4506780;27;654655;-73
2022/01/30 08:49:54;;;;;;;7.37;1.73;;;3.30;1.00;;;;;;4481896;27;656680;-71
2022/01/30 08:52:43;;;;;;;9.70;1.63;;;3.40;1.00;;;;;;4487657;27;655074;-72
2022/01/30 08:55:33;;;;;;;4.57;1.33;;;3.40;1.00;;;;;;4488674;27;654631;-72
2022/01/30 08:58:20;;;;;;;10.23;1.97;;;3.50;1.00;;;;;;4506054;27;654884;-73
2022/01/30 09:01:08;;;;;;;7.13;1.63;;;3.50;1.00;;;;;;4481620;27;656714;-71
2022/01/30 09:03:56;;;;;;;8.63;1.80;;;3.60;1.00;;;;;;4489254;27;654262;-71
2022/01/30 09:06:43;;;;;;;5.30;1.83;;;3.60;1.00;;;;;;4506527;27;655278;-71
2022/01/30 09:09:32;;;;;;;5.53;1.85;;;3.60;1.00;;;;;;4487150;27;655020;-72
2022/01/30 09:12:20;;;;;;;7.45;1.80;;;3.50;1.00;;;;;;4505656;27;654800;-72
2022/01/30 09:15:10;;;;;;;5.73;1.50;;;3.40;1.00;;;;;;4481890;27;655217;-71
2022/01/30 09:17:58;;;;;;;5.20;1.70;;;3.30;43.40;;;;;;4484039;27;654880;-71
2022/01/30 09:20:46;;;;;;;5.73;1.83;;;3.30;46.80;;;;;;4503058;27;655479;-73
2022/01/30 09:23:33;;;;;;;6.93;2.00;;;3.30;65.40;;;;;;4503995;27;656217;-71
2022/01/30 09:26:22;;;;;;;7.30;1.70;;;3.30;62.50;;;;;;4485385;27;655233;-73
2022/01/30 09:29:10;;;;;;;12.80;2.03;;;3.20;60.30;;;;;;4504534;27;655621;-72
2022/01/30 09:31:58;;;;;;;9.80;1.87;;;3.20;99.90;;;;;;4479903;27;657821;-71
2022/01/30 09:34:46;;;;;;;3.43;1.43;;;3.10;99.90;;;;;;4504024;27;655521;-71
2022/01/30 09:37:34;;;;;;;14.57;2.80;;;3.10;99.90;;;;;;4504544;27;655271;-71
2022/01/30 09:40:21;;;;;;;7.00;1.90;;;3.10;99.90;;;;;;4483944;27;656332;-72
2022/01/30 09:43:10;;;;;;;12.03;2.00;;;3.10;90.50;;;;;;4504059;27;656136;-71
2022/01/30 09:45:58;;;;;;;10.47;2.47;;;3.10;1.00;;;;;;4466993;27;656783;-71
2022/01/30 09:48:46;;;;;;;13.33;2.17;;;3.20;1.00;;;;;;4468089;27;655586;-72
2022/01/30 09:51:35;;;;;;;7.10;1.85;;;3.30;1.00;;;;;;4487510;27;656795;-72
2022/01/30 09:54:22;;;;;;;11.13;2.40;;;3.40;1.00;;;;;;4469259;27;654873;-71
2022/01/30 09:57:10;;;;;;;11.20;2.67;;;3.50;1.00;;;;;;4486632;27;655594;-72
2022/01/30 09:59:59;;;;;;;15.10;2.27;;;3.60;1.00;;;;;;4468035;27;656629;-71
2022/01/30 10:02:46;;;;;;;8.30;2.20;;;3.60;1.00;;;;;;4467929;27;655315;-71
2022/01/30 10:05:36;;;;;;;6.07;1.80;;;3.70;1.00;;;;;;4487146;27;655086;-71
2022/01/30 10:08:28;;;;;;;10.80;2.10;;;3.70;1.00;;;;;;4464665;27;656061;-71
2022/01/30 10:11:31;;;;;;;10.33;2.20;;;3.80;1.00;;;;;;4456467;27;656685;-72
2022/01/30 10:14:18;;;;;;;7.03;1.63;;;3.90;1.00;;;;;;4463178;27;655842;-71
2022/01/30 10:17:08;;;;;;;5.70;1.50;;;4.00;1.00;;;;;;4468150;27;654657;-72
2022/01/30 10:20:07;;;;;;;11.73;2.53;;;4.00;1.00;;;;;;4485497;27;654295;-72
2022/01/30 10:22:56;;;;;;;11.05;2.35;;;4.00;1.00;;;;;;4463375;27;656178;-71
2022/01/30 10:25:51;;;;;;;7.53;1.93;;;4.00;1.00;;;;;;4463777;27;655862;-71
2022/01/30 10:28:40;;;;;;;8.13;1.40;;;4.00;1.00;;;;;;4465062;27;654733;-71
2022/01/30 10:31:27;;;;;;;12.03;1.63;;;4.00;1.00;;;;;;4469068;27;654601;-71
2022/01/30 10:34:22;;;;;;;6.73;1.70;;;4.00;1.00;;;;;;4490472;27;655142;-69
2022/01/30 10:37:21;;;;;;;10.40;1.87;;;4.00;1.00;;;;;;4464185;27;654895;-72
2022/01/30 10:40:12;;;;;;;6.70;1.43;;;4.00;1.00;;;;;;4444355;27;655751;-70
2022/01/30 10:43:00;;;;;;;7.70;1.33;;;3.90;1.00;;;;;;4464046;27;654691;-70
2022/01/30 10:45:47;;;;;;;13.63;1.83;;;3.80;1.00;;;;;;4467339;27;654645;-69
2022/01/30 10:48:35;;;;;;;8.60;2.50;;;3.70;1.00;;;;;;4483817;27;656568;-72
2022/01/30 10:51:24;;;;;;;11.20;2.13;;;3.60;1.00;;;;;;4463051;27;656108;-71
2022/01/30 10:54:13;;;;;;;11.43;3.00;;;3.60;1.00;;;;;;4465897;27;655434;-70
2022/01/30 10:57:04;;;;;;;10.80;1.83;;;3.40;99.90;;;;;;4468801;27;655453;-72
2022/01/30 10:59:58;;;;;;;9.77;2.10;;;3.20;1.00;;;;;;4460444;27;656752;-72
2022/01/30 11:02:48;;;;;;;6.30;1.43;;;2.90;1.00;;;;;;4483248;27;655128;-70
2022/01/30 11:05:54;;;;;;;13.53;1.90;;;2.60;1.00;;;;;;4484995;27;654654;-71
2022/01/30 11:08:45;;;;;;;7.80;2.27;;;2.10;19.40;;;;;;4439109;27;655834;-73
2022/01/30 11:11:38;;;;;;;12.80;1.93;;;1.70;1.00;;;;;;4465605;27;655958;-72
2022/01/30 11:14:35;;;;;;;14.47;2.40;;;1.60;99.30;;;;;;4444861;27;655673;-73
2022/01/30 11:17:23;;;;;;;11.07;2.67;;;1.60;99.90;;;;;;4456554;27;656557;-72
2022/01/30 11:20:12;;;;;;;13.80;3.67;;;1.70;99.90;;;;;;4445878;28;657298;-74
2022/01/30 11:23:01;;;;;;;13.97;3.17;;;1.70;99.90;;;;;;4466068;28;656458;-72
2022/01/30 11:25:50;;;;;;;11.23;2.05;;;1.80;99.90;;;;;;4443158;28;657351;-73
2022/01/30 11:28:38;;;;;;;11.82;3.00;;;1.90;99.90;;;;;;4447004;28;657572;-71
2022/01/30 11:31:26;;;;;;;13.40;2.77;;;1.90;99.90;;;;;;4454594;28;656536;-73
2022/01/30 11:34:19;;;;;;;16.67;4.35;;;2.00;99.90;;;;;;4465046;28;657882;-73
2022/01/30 11:37:07;;;;;;;11.23;3.33;;;2.00;99.90;;;;;;4423075;28;656610;-73
2022/01/30 11:39:55;;;;;;;16.40;4.63;;;2.00;99.90;;;;;;4468586;28;656366;-73
2022/01/30 11:42:47;;;;;;;18.10;5.47;;;2.00;96.80;;;;;;4442325;28;657943;-71
2022/01/30 11:45:35;;;;;;;8.82;3.15;;;2.00;83.90;;;;;;4459800;27;656168;-73
2022/01/30 11:48:23;;;;;;;10.30;3.20;;;2.00;71.00;;;;;;4465501;27;656305;-73
2022/01/30 11:51:11;;;;;;;6.83;2.50;;;2.00;43.20;;;;;;4476381;27;656502;-70
2022/01/30 11:53:58;;;;;;;16.00;3.80;;;2.10;20.30;;;;;;4483829;27;655906;-73
2022/01/30 11:56:46;;;;;;;12.70;3.28;;;2.10;1.00;;;;;;4463539;27;656376;-73
2022/01/30 11:59:38;;;;;;;10.13;3.00;;;2.20;99.90;;;;;;4488074;27;656223;-73
2022/01/30 12:02:27;;;;;;;13.95;3.35;;;2.20;99.90;;;;;;4440270;27;657200;-73
2022/01/30 12:05:20;;;;;;;15.50;2.77;;;2.30;1.00;;;;;;4482231;27;656286;-72
2022/01/30 12:08:48;;;;;;;14.67;2.70;;;2.30;1.00;;;;;;4437843;27;656044;-72
2022/01/30 12:11:55;;;;;;;14.10;3.67;;;2.30;99.90;;;;;;4458088;27;655051;-70
2022/01/30 12:14:49;;;;;;;12.77;3.30;;;2.30;99.90;;;;;;4436388;27;656792;-73
2022/01/30 12:17:50;;;;;;;7.90;2.87;;;2.40;99.90;;;;;;4438124;27;657063;-70
2022/01/30 12:21:04;;;;;;;11.37;2.93;;;2.30;99.90;;;;;;4437820;27;656380;-73
2022/01/30 12:23:52;;;;;;;11.07;2.37;;;2.30;99.90;;;;;;4436333;28;657829;-73
2022/01/30 12:26:50;;;;;;;12.30;2.63;;;2.30;1.00;;;;;;4478982;28;656883;-70
2022/01/30 12:29:38;;;;;;;17.60;3.80;;;2.40;1.00;;;;;;4437840;28;656549;-69
2022/01/30 12:32:36;;;;;;;12.18;2.70;;;2.50;1.00;;;;;;4465112;28;655186;-71
2022/01/30 12:35:24;;;;;;;11.67;2.43;;;2.60;1.00;;;;;;4460316;28;655978;-73
2022/01/30 12:38:12;;;;;;;13.90;2.90;;;2.60;1.00;;;;;;4464633;28;655471;-69
2022/01/30 12:40:59;;;;;;;12.77;2.03;;;2.70;1.00;;;;;;4483304;28;656069;-72
2022/01/30 12:43:50;;;;;;;14.07;2.53;;;2.80;1.00;;;;;;4464572;28;655552;-72
2022/01/30 12:46:39;;;;;;;7.10;1.70;;;2.90;1.00;;;;;;4460141;28;657149;-73
2022/01/30 12:49:31;;;;;;;13.17;2.63;;;2.90;1.00;;;;;;4465762;28;654384;-74
2022/01/30 12:52:30;;;;;;;8.10;2.00;;;2.90;1.00;;;;;;4458880;28;655940;-74
2022/01/30 12:55:18;;;;;;;8.70;2.13;;;2.90;1.00;;;;;;4438322;28;655056;-74
2022/01/30 12:58:06;;;;;;;16.07;2.87;;;3.00;1.00;;;;;;4465560;28;654853;-72
2022/01/30 13:01:09;;;;;;;8.20;1.70;;;3.00;1.00;;;;;;4483518;28;656505;-73
2022/01/30 13:04:09;;;;;;;8.20;2.00;;;3.00;1.00;;;;;;4438260;28;656060;-72
2022/01/30 13:07:02;;;;;;;18.87;3.30;;;2.90;1.00;;;;;;4442417;28;654200;-74
2022/01/30 13:10:03;;;;;;;15.77;3.10;;;3.00;1.00;;;;;;4460291;28;655804;-72
2022/01/30 13:12:51;;;;;;;14.03;3.07;;;2.90;1.00;;;;;;4443788;27;656255;-75
2022/01/30 13:15:39;;;;;;;10.63;3.23;;;2.90;1.00;;;;;;4486112;27;656022;-72
2022/01/30 13:18:27;;;;;;;14.47;3.00;;;2.90;1.00;;;;;;4469625;27;655430;-74
2022/01/30 13:21:14;;;;;;;17.97;3.47;;;2.90;1.00;;;;;;4486327;27;656124;-72
2022/01/30 13:24:04;;;;;;;18.30;3.43;;;2.80;1.00;;;;;;4464038;27;655964;-74
2022/01/30 13:26:57;;;;;;;8.77;2.87;;;2.80;1.00;;;;;;4467423;27;655858;-72
2022/01/30 13:29:45;;;;;;;17.27;3.20;;;2.80;1.00;;;;;;4468833;27;655091;-72
2022/01/30 13:32:32;;;;;;;14.67;2.93;;;2.80;1.00;;;;;;4464464;27;655219;-72
2022/01/30 13:35:21;;;;;;;15.03;3.03;;;2.60;1.00;;;;;;4485991;27;656179;-72
2022/01/30 13:38:08;;;;;;;14.27;3.40;;;2.50;1.00;;;;;;4462789;27;656597;-75
2022/01/30 13:41:03;;;;;;;20.07;4.13;;;2.40;1.00;;;;;;4466690;27;655436;-73
2022/01/30 13:43:57;;;;;;;19.40;4.00;;;2.30;99.90;;;;;;4449464;27;655906;-72
2022/01/30 13:46:59;;;;;;;17.77;4.00;;;2.20;1.00;;;;;;4455701;27;656291;-72
2022/01/30 13:49:49;;;;;;;9.63;3.03;;;2.10;99.90;;;;;;4442831;27;656424;-72
2022/01/30 13:52:37;;;;;;;17.00;4.10;;;2.00;99.90;;;;;;4466925;27;656075;-72
2022/01/30 13:55:25;;;;;;;12.40;3.23;;;2.00;1.00;;;;;;4484794;27;657079;-72
2022/01/30 13:58:14;;;;;;;16.17;3.83;;;2.00;29.00;;;;;;4462742;27;656966;-71
2022/01/30 14:01:01;;;;;;;16.30;4.23;;;1.90;1.00;;;;;;4463846;27;656798;-72
2022/01/30 14:03:50;;;;;;;21.10;5.33;;;1.90;32.90;;;;;;4489172;27;656042;-72
2022/01/30 14:06:39;;;;;;;14.80;3.17;;;1.90;62.70;;;;;;4461082;27;658257;-71
2022/01/30 14:09:36;;;;;;;12.33;2.80;;;1.90;64.60;;;;;;4465479;27;657274;-72
2022/01/30 14:12:29;;;;;;;14.23;3.53;;;2.00;49.30;;;;;;4461794;27;657570;-72
2022/01/30 14:15:20;;;;;;;14.13;4.70;;;2.00;44.20;;;;;;4438387;27;656923;-72
2022/01/30 14:18:12;;;;;;;15.70;4.90;;;2.00;34.20;;;;;;4465445;27;657175;-70
2022/01/30 14:21:00;;;;;;;12.37;4.07;;;2.00;4.00;;;;;;4461143;27;657380;-72
2022/01/30 14:23:48;;;;;;;15.30;3.60;;;2.00;1.00;;;;;;4461545;27;656809;-72
2022/01/30 14:26:36;;;;;;;23.07;4.80;;;2.00;1.00;;;;;;4485343;27;656187;-73
2022/01/30 14:29:23;;;;;;;10.40;3.10;;;2.00;1.00;;;;;;4485635;27;657145;-73
2022/01/30 14:32:13;;;;;;;22.65;5.15;;;2.10;1.00;;;;;;4466515;27;655369;-72
2022/01/30 14:35:02;;;;;;;15.87;4.07;;;2.00;99.90;;;;;;4469220;27;656312;-72
2022/01/30 14:37:49;;;;;;;18.10;4.27;;;2.00;99.90;;;;;;4484767;27;656758;-71
2022/01/30 14:40:38;;;;;;;27.67;4.90;;;2.00;99.90;;;;;;4465180;27;656602;-72
2022/01/30 14:43:26;;;;;;;22.67;5.10;;;2.00;99.90;;;;;;4483540;27;657029;-72
2022/01/30 14:46:14;;;;;;;20.80;5.00;;;1.90;99.90;;;;;;4487631;27;657056;-71
2022/01/30 14:49:03;;;;;;;30.97;4.57;;;2.00;99.90;;;;;;4465220;27;656690;-72
2022/01/30 14:51:51;;;;;;;15.07;3.80;;;1.90;99.90;;;;;;4465026;27;657124;-72
2022/01/30 14:54:39;;;;;;;17.40;4.43;;;1.90;1.00;;;;;;4484629;27;657732;-72
2022/01/30 14:57:26;;;;;;;24.57;5.50;;;1.90;1.00;;;;;;4466074;27;655656;-73
2022/01/30 15:00:47;;;;;;;22.37;5.20;;;1.90;1.00;;;;;;4486287;27;656667;-72
2022/01/30 15:03:35;;;;;;;22.23;5.50;;;2.00;99.90;;;;;;4461385;27;655861;-71
2022/01/30 15:06:24;;;;;;;22.90;5.13;;;2.00;1.00;;;;;;4464437;27;657463;-71
2022/01/30 15:09:12;;;;;;;26.20;5.73;;;2.00;1.00;;;;;;4466097;27;655068;-72
2022/01/30 15:12:00;;;;;;;10.13;3.83;;;2.10;99.90;;;;;;4485446;27;655376;-71
2022/01/30 15:14:51;;;;;;;20.10;4.60;;;2.10;1.00;;;;;;4464236;27;656630;-73